sensor_id;sensor_type;location;lat;lon;timestamp;P1;durP1;ratioP1;P2;durP2;ratioP2
54683;SDS011;40582;53.100;6.686;2022-11-20T00:01:09;24.45;;;19.38;;
54683;SDS011;40582;53.100;6.686;2022-11-20T00:03:35;25.23;;;20.20;;
54683;SDS011;40582;53.100;6.686;2022-11-20T00:06:01;27.65;;;20.50;;
54683;SDS011;40582;53.100;6.686;2022-11-20T00:08:31;44.67;;;28.67;;
54683;SDS011;40582;53.100;6.686;2022-11-20T00:10:57;39.47;;;27.52;;
54683;SDS011;40582;53.100;6.686;2022-11-20T00:13:31;45.40;;;28.70;;
54683;SDS011;40582;53.100;6.686;2022-11-20T00:16:01;38.30;;;27.77;;
54683;SDS011;40582;53.100;6.686;2022-11-20T00:18:28;37.25;;;25.83;;
54683;SDS011;40582;53.100;6.686;2022-11-20T00:20:59;34.22;;;25.13;;
54683;SDS011;40582;53.100;6.686;2022-11-20T00:23:26;31.55;;;23.45;;
54683;SDS011;40582;53.100;6.686;2022-11-20T00:25:52;30.33;;;22.05;;
54683;SDS011;40582;53.100;6.686;2022-11-20T00:28:17;29.88;;;21.08;;
54683;SDS011;40582;53.100;6.686;2022-11-20T00:30:43;27.85;;;20.30;;
54683;SDS011;40582;53.100;6.686;2022-11-20T00:33:09;28.10;;;20.45;;
54683;SDS011;40582;53.100;6.686;2022-11-20T00:35:34;31.45;;;21.63;;
54683;SDS011;40582;53.100;6.686;2022-11-20T00:38:00;27.67;;;20.45;;
54683;SDS011;40582;53.100;6.686;2022-11-20T00:40:26;29.85;;;21.73;;
54683;SDS011;40582;53.100;6.686;2022-11-20T00:42:51;28.75;;;20.38;;
54683;SDS011;40582;53.100;6.686;2022-11-20T00:45:17;27.52;;;20.52;;
54683;SDS011;40582;53.100;6.686;2022-11-20T00:47:42;26.13;;;19.05;;
54683;SDS011;40582;53.100;6.686;2022-11-20T00:50:08;24.67;;;18.95;;
54683;SDS011;40582;53.100;6.686;2022-11-20T00:52:34;24.73;;;19.50;;
54683;SDS011;40582;53.100;6.686;2022-11-20T00:54:59;26.45;;;19.45;;
54683;SDS011;40582;53.100;6.686;2022-11-20T00:57:25;25.30;;;20.15;;
54683;SDS011;40582;53.100;6.686;2022-11-20T00:59:51;27.20;;;19.73;;
54683;SDS011;40582;53.100;6.686;2022-11-20T01:02:16;23.05;;;18.67;;
54683;SDS011;40582;53.100;6.686;2022-11-20T01:04:42;25.67;;;18.83;;
54683;SDS011;40582;53.100;6.686;2022-11-20T01:07:08;22.58;;;17.23;;
54683;SDS011;40582;53.100;6.686;2022-11-20T01:09:33;21.60;;;17.58;;
54683;SDS011;40582;53.100;6.686;2022-11-20T01:11:59;22.77;;;17.92;;
54683;SDS011;40582;53.100;6.686;2022-11-20T01:14:25;22.45;;;17.73;;
54683;SDS011;40582;53.100;6.686;2022-11-20T01:16:51;22.48;;;18.15;;
54683;SDS011;40582;53.100;6.686;2022-11-20T01:19:18;27.35;;;19.48;;
54683;SDS011;40582;53.100;6.686;2022-11-20T01:21:46;24.15;;;16.85;;
54683;SDS011;40582;53.100;6.686;2022-11-20T01:24:15;22.35;;;17.60;;
54683;SDS011;40582;53.100;6.686;2022-11-20T01:26:42;24.90;;;18.08;;
54683;SDS011;40582;53.100;6.686;2022-11-20T01:29:13;21.00;;;17.35;;
54683;SDS011;40582;53.100;6.686;2022-11-20T01:31:41;23.27;;;17.08;;
54683;SDS011;40582;53.100;6.686;2022-11-20T01:34:09;20.80;;;17.20;;
54683;SDS011;40582;53.100;6.686;2022-11-20T01:36:37;25.00;;;17.75;;
54683;SDS011;40582;53.100;6.686;2022-11-20T01:39:04;23.35;;;18.13;;
54683;SDS011;40582;53.100;6.686;2022-11-20T01:41:36;23.73;;;17.50;;
54683;SDS011;40582;53.100;6.686;2022-11-20T01:44:22;21.15;;;17.27;;
54683;SDS011;40582;53.100;6.686;2022-11-20T01:47:20;24.88;;;18.05;;
54683;SDS011;40582;53.100;6.686;2022-11-20T01:50:09;24.13;;;18.00;;
54683;SDS011;40582;53.100;6.686;2022-11-20T01:52:45;25.67;;;17.95;;
54683;SDS011;40582;53.100;6.686;2022-11-20T01:55:18;23.13;;;17.47;;
54683;SDS011;40582;53.100;6.686;2022-11-20T01:57:47;21.98;;;17.60;;
54683;SDS011;40582;53.100;6.686;2022-11-20T02:00:15;23.55;;;18.00;;
54683;SDS011;40582;53.100;6.686;2022-11-20T02:02:43;23.60;;;17.20;;
54683;SDS011;40582;53.100;6.686;2022-11-20T02:08:04;22.73;;;18.10;;
54683;SDS011;40582;53.100;6.686;2022-11-20T02:10:31;24.20;;;17.20;;
54683;SDS011;40582;53.100;6.686;2022-11-20T02:12:57;22.70;;;17.52;;
54683;SDS011;40582;53.100;6.686;2022-11-20T02:15:42;24.80;;;17.92;;
54683;SDS011;40582;53.100;6.686;2022-11-20T02:18:09;23.65;;;17.17;;
54683;SDS011;40582;53.100;6.686;2022-11-20T02:20:35;25.92;;;17.83;;
54683;SDS011;40582;53.100;6.686;2022-11-20T02:23:12;21.08;;;17.17;;
54683;SDS011;40582;53.100;6.686;2022-11-20T02:25:41;21.60;;;16.83;;
54683;SDS011;40582;53.100;6.686;2022-11-20T02:28:08;21.50;;;17.27;;
54683;SDS011;40582;53.100;6.686;2022-11-20T02:30:35;23.48;;;17.52;;
54683;SDS011;40582;53.100;6.686;2022-11-20T02:33:00;25.55;;;17.58;;
54683;SDS011;40582;53.100;6.686;2022-11-20T02:37:53;23.42;;;17.92;;
54683;SDS011;40582;53.100;6.686;2022-11-20T02:40:20;23.35;;;17.55;;
54683;SDS011;40582;53.100;6.686;2022-11-20T02:42:46;22.88;;;16.75;;
54683;SDS011;40582;53.100;6.686;2022-11-20T02:45:13;22.77;;;17.38;;
54683;SDS011;40582;53.100;6.686;2022-11-20T02:47:38;22.02;;;17.52;;
54683;SDS011;40582;53.100;6.686;2022-11-20T02:50:04;21.70;;;16.10;;
54683;SDS011;40582;53.100;6.686;2022-11-20T02:52:30;22.23;;;17.05;;
54683;SDS011;40582;53.100;6.686;2022-11-20T02:54:56;23.23;;;17.60;;
54683;SDS011;40582;53.100;6.686;2022-11-20T02:57:21;22.83;;;18.30;;
54683;SDS011;40582;53.100;6.686;2022-11-20T02:59:47;21.98;;;17.08;;
54683;SDS011;40582;53.100;6.686;2022-11-20T03:02:13;24.27;;;18.75;;
54683;SDS011;40582;53.100;6.686;2022-11-20T03:04:39;23.98;;;18.35;;
54683;SDS011;40582;53.100;6.686;2022-11-20T03:07:04;20.17;;;16.92;;
54683;SDS011;40582;53.100;6.686;2022-11-20T03:09:30;21.55;;;17.30;;
54683;SDS011;40582;53.100;6.686;2022-11-20T03:11:56;22.50;;;17.40;;
54683;SDS011;40582;53.100;6.686;2022-11-20T03:14:21;24.98;;;17.92;;
54683;SDS011;40582;53.100;6.686;2022-11-20T03:16:47;21.35;;;17.20;;
54683;SDS011;40582;53.100;6.686;2022-11-20T03:19:12;25.48;;;18.30;;
54683;SDS011;40582;53.100;6.686;2022-11-20T03:21:38;22.55;;;17.45;;
54683;SDS011;40582;53.100;6.686;2022-11-20T03:24:04;24.58;;;17.52;;
54683;SDS011;40582;53.100;6.686;2022-11-20T03:26:30;20.80;;;17.63;;
54683;SDS011;40582;53.100;6.686;2022-11-20T03:28:58;22.88;;;18.15;;
54683;SDS011;40582;53.100;6.686;2022-11-20T03:31:26;21.52;;;17.73;;
54683;SDS011;40582;53.100;6.686;2022-11-20T03:33:54;24.20;;;19.05;;
54683;SDS011;40582;53.100;6.686;2022-11-20T03:36:20;20.60;;;17.35;;
54683;SDS011;40582;53.100;6.686;2022-11-20T03:38:47;24.08;;;17.55;;
54683;SDS011;40582;53.100;6.686;2022-11-20T03:41:14;23.25;;;17.63;;
54683;SDS011;40582;53.100;6.686;2022-11-20T03:43:46;22.40;;;17.73;;
54683;SDS011;40582;53.100;6.686;2022-11-20T03:46:14;22.27;;;16.92;;
54683;SDS011;40582;53.100;6.686;2022-11-20T03:48:39;23.05;;;17.38;;
54683;SDS011;40582;53.100;6.686;2022-11-20T03:51:12;21.80;;;17.20;;
54683;SDS011;40582;53.100;6.686;2022-11-20T03:53:41;21.83;;;17.30;;
54683;SDS011;40582;53.100;6.686;2022-11-20T03:56:08;20.40;;;15.95;;
54683;SDS011;40582;53.100;6.686;2022-11-20T03:58:36;21.00;;;16.65;;
54683;SDS011;40582;53.100;6.686;2022-11-20T04:03:33;19.02;;;16.33;;
54683;SDS011;40582;53.100;6.686;2022-11-20T04:06:10;21.60;;;16.80;;
54683;SDS011;40582;53.100;6.686;2022-11-20T04:08:43;18.75;;;15.93;;
54683;SDS011;40582;53.100;6.686;2022-11-20T04:11:13;19.02;;;16.27;;
54683;SDS011;40582;53.100;6.686;2022-11-20T04:13:39;19.27;;;16.10;;
54683;SDS011;40582;53.100;6.686;2022-11-20T04:16:06;20.13;;;16.50;;
54683;SDS011;40582;53.100;6.686;2022-11-20T04:18:32;20.17;;;16.58;;
54683;SDS011;40582;53.100;6.686;2022-11-20T04:20:58;19.17;;;15.65;;
54683;SDS011;40582;53.100;6.686;2022-11-20T04:23:24;21.02;;;16.55;;
54683;SDS011;40582;53.100;6.686;2022-11-20T04:25:51;22.35;;;16.98;;
54683;SDS011;40582;53.100;6.686;2022-11-20T04:28:17;23.23;;;16.25;;
54683;SDS011;40582;53.100;6.686;2022-11-20T04:30:43;18.55;;;15.27;;
54683;SDS011;40582;53.100;6.686;2022-11-20T04:33:09;22.70;;;15.77;;
54683;SDS011;40582;53.100;6.686;2022-11-20T04:35:35;22.45;;;16.55;;
54683;SDS011;40582;53.100;6.686;2022-11-20T04:38:01;19.65;;;15.48;;
54683;SDS011;40582;53.100;6.686;2022-11-20T04:40:27;19.13;;;16.40;;
54683;SDS011;40582;53.100;6.686;2022-11-20T04:42:53;23.73;;;15.75;;
54683;SDS011;40582;53.100;6.686;2022-11-20T04:45:19;21.30;;;15.50;;
54683;SDS011;40582;53.100;6.686;2022-11-20T04:47:45;19.92;;;15.57;;
54683;SDS011;40582;53.100;6.686;2022-11-20T04:50:11;18.33;;;15.15;;
54683;SDS011;40582;53.100;6.686;2022-11-20T04:52:37;22.75;;;16.10;;
54683;SDS011;40582;53.100;6.686;2022-11-20T04:55:02;20.90;;;15.60;;
54683;SDS011;40582;53.100;6.686;2022-11-20T04:57:28;19.40;;;14.10;;
54683;SDS011;40582;53.100;6.686;2022-11-20T04:59:54;20.17;;;16.10;;
54683;SDS011;40582;53.100;6.686;2022-11-20T05:02:20;18.75;;;14.95;;
54683;SDS011;40582;53.100;6.686;2022-11-20T05:04:45;18.83;;;15.27;;
54683;SDS011;40582;53.100;6.686;2022-11-20T05:07:11;18.13;;;14.90;;
54683;SDS011;40582;53.100;6.686;2022-11-20T05:09:37;17.30;;;14.93;;
54683;SDS011;40582;53.100;6.686;2022-11-20T05:12:02;17.00;;;14.00;;
54683;SDS011;40582;53.100;6.686;2022-11-20T05:14:28;16.63;;;14.45;;
54683;SDS011;40582;53.100;6.686;2022-11-20T05:16:54;19.20;;;15.10;;
54683;SDS011;40582;53.100;6.686;2022-11-20T05:19:19;19.05;;;14.93;;
54683;SDS011;40582;53.100;6.686;2022-11-20T05:21:45;20.42;;;14.38;;
54683;SDS011;40582;53.100;6.686;2022-11-20T05:24:11;17.45;;;14.68;;
54683;SDS011;40582;53.100;6.686;2022-11-20T05:26:36;19.17;;;15.65;;
54683;SDS011;40582;53.100;6.686;2022-11-20T05:29:02;18.15;;;14.15;;
54683;SDS011;40582;53.100;6.686;2022-11-20T05:31:28;18.13;;;14.25;;
54683;SDS011;40582;53.100;6.686;2022-11-20T05:33:55;17.10;;;14.40;;
54683;SDS011;40582;53.100;6.686;2022-11-20T05:36:21;18.05;;;14.10;;
54683;SDS011;40582;53.100;6.686;2022-11-20T05:38:47;18.70;;;14.77;;
54683;SDS011;40582;53.100;6.686;2022-11-20T05:41:14;18.05;;;14.20;;
54683;SDS011;40582;53.100;6.686;2022-11-20T05:43:41;21.17;;;14.82;;
54683;SDS011;40582;53.100;6.686;2022-11-20T05:46:09;17.95;;;14.40;;
54683;SDS011;40582;53.100;6.686;2022-11-20T05:48:38;17.77;;;14.82;;
54683;SDS011;40582;53.100;6.686;2022-11-20T05:51:05;22.88;;;16.77;;
54683;SDS011;40582;53.100;6.686;2022-11-20T05:53:33;23.58;;;15.90;;
54683;SDS011;40582;53.100;6.686;2022-11-20T05:56:07;18.90;;;15.65;;
54683;SDS011;40582;53.100;6.686;2022-11-20T05:58:44;18.70;;;15.55;;
54683;SDS011;40582;53.100;6.686;2022-11-20T06:01:14;17.00;;;13.95;;
54683;SDS011;40582;53.100;6.686;2022-11-20T06:03:45;21.85;;;14.90;;
54683;SDS011;40582;53.100;6.686;2022-11-20T06:06:12;17.83;;;14.00;;
54683;SDS011;40582;53.100;6.686;2022-11-20T06:08:39;17.90;;;14.07;;
54683;SDS011;40582;53.100;6.686;2022-11-20T06:11:05;17.15;;;14.13;;
54683;SDS011;40582;53.100;6.686;2022-11-20T06:13:35;16.17;;;14.07;;
54683;SDS011;40582;53.100;6.686;2022-11-20T06:16:02;17.50;;;14.00;;
54683;SDS011;40582;53.100;6.686;2022-11-20T06:18:28;15.65;;;13.25;;
54683;SDS011;40582;53.100;6.686;2022-11-20T06:23:27;19.17;;;14.95;;
54683;SDS011;40582;53.100;6.686;2022-11-20T06:25:54;17.02;;;14.10;;
54683;SDS011;40582;53.100;6.686;2022-11-20T06:28:19;17.08;;;13.38;;
54683;SDS011;40582;53.100;6.686;2022-11-20T06:30:46;16.17;;;12.90;;
54683;SDS011;40582;53.100;6.686;2022-11-20T06:33:11;15.32;;;13.50;;
54683;SDS011;40582;53.100;6.686;2022-11-20T06:35:37;20.40;;;13.52;;
54683;SDS011;40582;53.100;6.686;2022-11-20T06:38:03;15.35;;;13.15;;
54683;SDS011;40582;53.100;6.686;2022-11-20T06:40:28;18.60;;;14.90;;
54683;SDS011;40582;53.100;6.686;2022-11-20T06:42:54;22.67;;;16.77;;
54683;SDS011;40582;53.100;6.686;2022-11-20T06:45:20;19.38;;;16.00;;
54683;SDS011;40582;53.100;6.686;2022-11-20T06:47:46;20.42;;;15.70;;
54683;SDS011;40582;53.100;6.686;2022-11-20T06:50:12;17.73;;;13.95;;
54683;SDS011;40582;53.100;6.686;2022-11-20T06:52:38;20.55;;;14.15;;
54683;SDS011;40582;53.100;6.686;2022-11-20T06:55:04;17.00;;;13.65;;
54683;SDS011;40582;53.100;6.686;2022-11-20T06:57:29;18.00;;;13.70;;
54683;SDS011;40582;53.100;6.686;2022-11-20T06:59:55;17.33;;;14.13;;
54683;SDS011;40582;53.100;6.686;2022-11-20T07:02:21;17.00;;;13.02;;
54683;SDS011;40582;53.100;6.686;2022-11-20T07:04:46;14.77;;;12.63;;
54683;SDS011;40582;53.100;6.686;2022-11-20T07:07:12;15.00;;;13.07;;
54683;SDS011;40582;53.100;6.686;2022-11-20T07:09:37;15.70;;;13.52;;
54683;SDS011;40582;53.100;6.686;2022-11-20T07:12:03;17.00;;;13.40;;
54683;SDS011;40582;53.100;6.686;2022-11-20T07:14:29;15.77;;;13.02;;
54683;SDS011;40582;53.100;6.686;2022-11-20T07:16:55;21.13;;;13.90;;
54683;SDS011;40582;53.100;6.686;2022-11-20T07:19:20;15.93;;;13.10;;
54683;SDS011;40582;53.100;6.686;2022-11-20T07:21:46;18.00;;;13.27;;
54683;SDS011;40582;53.100;6.686;2022-11-20T07:24:11;16.45;;;12.80;;
54683;SDS011;40582;53.100;6.686;2022-11-20T07:26:37;16.75;;;14.65;;
54683;SDS011;40582;53.100;6.686;2022-11-20T07:29:03;17.40;;;14.30;;
54683;SDS011;40582;53.100;6.686;2022-11-20T07:31:28;16.90;;;13.52;;
54683;SDS011;40582;53.100;6.686;2022-11-20T07:33:54;17.27;;;12.98;;
54683;SDS011;40582;53.100;6.686;2022-11-20T07:36:20;18.50;;;13.95;;
54683;SDS011;40582;53.100;6.686;2022-11-20T07:38:46;17.08;;;14.07;;
54683;SDS011;40582;53.100;6.686;2022-11-20T07:41:12;16.08;;;13.93;;
54683;SDS011;40582;53.100;6.686;2022-11-20T07:43:37;17.20;;;13.95;;
54683;SDS011;40582;53.100;6.686;2022-11-20T07:46:03;18.20;;;13.35;;
54683;SDS011;40582;53.100;6.686;2022-11-20T07:48:29;17.95;;;13.82;;
54683;SDS011;40582;53.100;6.686;2022-11-20T07:50:55;17.08;;;13.73;;
54683;SDS011;40582;53.100;6.686;2022-11-20T07:53:22;17.58;;;14.32;;
54683;SDS011;40582;53.100;6.686;2022-11-20T07:55:48;17.33;;;13.23;;
54683;SDS011;40582;53.100;6.686;2022-11-20T07:58:17;17.70;;;13.50;;
54683;SDS011;40582;53.100;6.686;2022-11-20T08:00:43;16.98;;;13.98;;
54683;SDS011;40582;53.100;6.686;2022-11-20T08:03:09;19.25;;;14.60;;
54683;SDS011;40582;53.100;6.686;2022-11-20T08:05:35;21.38;;;15.48;;
54683;SDS011;40582;53.100;6.686;2022-11-20T08:08:00;20.70;;;14.23;;
54683;SDS011;40582;53.100;6.686;2022-11-20T08:10:26;18.42;;;14.07;;
54683;SDS011;40582;53.100;6.686;2022-11-20T08:12:52;21.23;;;14.95;;
54683;SDS011;40582;53.100;6.686;2022-11-20T08:15:37;17.08;;;14.40;;
54683;SDS011;40582;53.100;6.686;2022-11-20T08:18:05;19.40;;;14.25;;
54683;SDS011;40582;53.100;6.686;2022-11-20T08:20:36;18.10;;;14.30;;
54683;SDS011;40582;53.100;6.686;2022-11-20T08:23:02;15.93;;;13.98;;
54683;SDS011;40582;53.100;6.686;2022-11-20T08:25:30;16.05;;;14.00;;
54683;SDS011;40582;53.100;6.686;2022-11-20T08:27:59;17.83;;;14.27;;
54683;SDS011;40582;53.100;6.686;2022-11-20T08:30:26;16.70;;;13.90;;
54683;SDS011;40582;53.100;6.686;2022-11-20T08:32:52;18.73;;;14.77;;
54683;SDS011;40582;53.100;6.686;2022-11-20T08:35:19;17.15;;;13.98;;
54683;SDS011;40582;53.100;6.686;2022-11-20T08:37:48;17.20;;;13.88;;
54683;SDS011;40582;53.100;6.686;2022-11-20T08:40:14;17.55;;;13.93;;
54683;SDS011;40582;53.100;6.686;2022-11-20T08:42:47;17.38;;;13.70;;
54683;SDS011;40582;53.100;6.686;2022-11-20T08:45:13;16.65;;;12.93;;
54683;SDS011;40582;53.100;6.686;2022-11-20T08:47:39;17.70;;;12.43;;
54683;SDS011;40582;53.100;6.686;2022-11-20T08:50:06;17.63;;;12.85;;
54683;SDS011;40582;53.100;6.686;2022-11-20T08:52:32;16.52;;;12.40;;
54683;SDS011;40582;53.100;6.686;2022-11-20T08:54:58;16.52;;;12.07;;
54683;SDS011;40582;53.100;6.686;2022-11-20T08:57:23;18.50;;;12.75;;
54683;SDS011;40582;53.100;6.686;2022-11-20T08:59:49;16.27;;;12.15;;
54683;SDS011;40582;53.100;6.686;2022-11-20T09:02:14;13.80;;;10.63;;
54683;SDS011;40582;53.100;6.686;2022-11-20T09:04:40;14.38;;;11.90;;
54683;SDS011;40582;53.100;6.686;2022-11-20T09:07:06;16.35;;;11.80;;
54683;SDS011;40582;53.100;6.686;2022-11-20T09:09:31;15.30;;;12.18;;
54683;SDS011;40582;53.100;6.686;2022-11-20T09:11:58;14.43;;;11.23;;
54683;SDS011;40582;53.100;6.686;2022-11-20T09:14:23;15.52;;;11.50;;
54683;SDS011;40582;53.100;6.686;2022-11-20T09:16:54;14.85;;;11.65;;
54683;SDS011;40582;53.100;6.686;2022-11-20T09:19:20;13.55;;;11.32;;
54683;SDS011;40582;53.100;6.686;2022-11-20T09:21:46;13.80;;;11.18;;
54683;SDS011;40582;53.100;6.686;2022-11-20T09:24:11;13.70;;;11.07;;
54683;SDS011;40582;53.100;6.686;2022-11-20T09:26:37;13.10;;;11.13;;
54683;SDS011;40582;53.100;6.686;2022-11-20T09:29:03;11.88;;;10.50;;
54683;SDS011;40582;53.100;6.686;2022-11-20T09:31:28;14.25;;;10.88;;
54683;SDS011;40582;53.100;6.686;2022-11-20T09:33:54;13.80;;;11.20;;
54683;SDS011;40582;53.100;6.686;2022-11-20T09:36:20;13.90;;;10.85;;
54683;SDS011;40582;53.100;6.686;2022-11-20T09:38:46;15.05;;;10.70;;
54683;SDS011;40582;53.100;6.686;2022-11-20T09:41:34;15.30;;;10.95;;
54683;SDS011;40582;53.100;6.686;2022-11-20T09:55:36;12.63;;;10.20;;
54683;SDS011;40582;53.100;6.686;2022-11-20T09:58:05;13.70;;;10.85;;
54683;SDS011;40582;53.100;6.686;2022-11-20T10:00:32;12.13;;;10.70;;
54683;SDS011;40582;53.100;6.686;2022-11-20T10:03:01;17.40;;;11.40;;
54683;SDS011;40582;53.100;6.686;2022-11-20T10:05:52;13.73;;;11.15;;
54683;SDS011;40582;53.100;6.686;2022-11-20T10:08:24;12.18;;;10.05;;
54683;SDS011;40582;53.100;6.686;2022-11-20T10:11:10;14.15;;;11.00;;
54683;SDS011;40582;53.100;6.686;2022-11-20T10:16:44;13.32;;;11.23;;
54683;SDS011;40582;53.100;6.686;2022-11-20T10:19:18;13.43;;;10.15;;
54683;SDS011;40582;53.100;6.686;2022-11-20T10:22:13;13.45;;;10.45;;
54683;SDS011;40582;53.100;6.686;2022-11-20T10:32:33;14.00;;;10.35;;
54683;SDS011;40582;53.100;6.686;2022-11-20T10:35:05;13.10;;;10.15;;
54683;SDS011;40582;53.100;6.686;2022-11-20T10:37:41;13.27;;;10.98;;
54683;SDS011;40582;53.100;6.686;2022-11-20T10:48:10;13.10;;;10.93;;
54683;SDS011;40582;53.100;6.686;2022-11-20T10:51:15;13.80;;;10.60;;
54683;SDS011;40582;53.100;6.686;2022-11-20T10:53:45;15.80;;;10.80;;
54683;SDS011;40582;53.100;6.686;2022-11-20T10:56:38;13.68;;;10.52;;
54683;SDS011;40582;53.100;6.686;2022-11-20T11:01:56;16.45;;;12.73;;
54683;SDS011;40582;53.100;6.686;2022-11-20T11:04:33;17.67;;;12.65;;
54683;SDS011;40582;53.100;6.686;2022-11-20T11:07:19;13.98;;;10.40;;
54683;SDS011;40582;53.100;6.686;2022-11-20T11:09:49;10.95;;;9.43;;
54683;SDS011;40582;53.100;6.686;2022-11-20T11:12:17;12.35;;;9.20;;
54683;SDS011;40582;53.100;6.686;2022-11-20T11:14:44;13.65;;;8.95;;
54683;SDS011;40582;53.100;6.686;2022-11-20T11:20:00;10.95;;;9.23;;
54683;SDS011;40582;53.100;6.686;2022-11-20T11:22:26;11.80;;;9.55;;
54683;SDS011;40582;53.100;6.686;2022-11-20T11:24:55;11.45;;;9.60;;
54683;SDS011;40582;53.100;6.686;2022-11-20T11:27:20;10.20;;;8.50;;
54683;SDS011;40582;53.100;6.686;2022-11-20T11:29:46;10.73;;;8.48;;
54683;SDS011;40582;53.100;6.686;2022-11-20T11:32:18;10.48;;;8.80;;
54683;SDS011;40582;53.100;6.686;2022-11-20T11:34:58;12.75;;;9.80;;
54683;SDS011;40582;53.100;6.686;2022-11-20T11:37:25;13.25;;;9.25;;
54683;SDS011;40582;53.100;6.686;2022-11-20T11:40:02;12.13;;;8.90;;
54683;SDS011;40582;53.100;6.686;2022-11-20T11:42:29;9.30;;;8.13;;
54683;SDS011;40582;53.100;6.686;2022-11-20T11:44:56;10.30;;;8.32;;
54683;SDS011;40582;53.100;6.686;2022-11-20T11:47:36;15.37;;;8.27;;
54683;SDS011;40582;53.100;6.686;2022-11-20T11:50:24;10.90;;;7.85;;
54683;SDS011;40582;53.100;6.686;2022-11-20T11:52:56;9.27;;;7.55;;
54683;SDS011;40582;53.100;6.686;2022-11-20T11:55:37;12.32;;;8.80;;
54683;SDS011;40582;53.100;6.686;2022-11-20T11:58:24;14.30;;;9.88;;
54683;SDS011;40582;53.100;6.686;2022-11-20T12:01:07;12.55;;;9.50;;
54683;SDS011;40582;53.100;6.686;2022-11-20T12:03:50;13.77;;;10.75;;
54683;SDS011;40582;53.100;6.686;2022-11-20T12:06:45;10.52;;;9.00;;
54683;SDS011;40582;53.100;6.686;2022-11-20T12:09:17;10.75;;;8.88;;
54683;SDS011;40582;53.100;6.686;2022-11-20T12:11:47;12.25;;;8.48;;
54683;SDS011;40582;53.100;6.686;2022-11-20T12:17:00;8.85;;;6.90;;
54683;SDS011;40582;53.100;6.686;2022-11-20T12:19:26;11.80;;;7.65;;
54683;SDS011;40582;53.100;6.686;2022-11-20T12:22:04;11.73;;;8.80;;
54683;SDS011;40582;53.100;6.686;2022-11-20T12:30:21;7.72;;;6.05;;
54683;SDS011;40582;53.100;6.686;2022-11-20T12:33:25;9.10;;;7.28;;
54683;SDS011;40582;53.100;6.686;2022-11-20T12:52:56;7.35;;;6.00;;
54683;SDS011;40582;53.100;6.686;2022-11-20T12:58:49;8.30;;;6.40;;
54683;SDS011;40582;53.100;6.686;2022-11-20T13:01:47;7.50;;;6.10;;
54683;SDS011;40582;53.100;6.686;2022-11-20T13:07:13;15.32;;;6.57;;
54683;SDS011;40582;53.100;6.686;2022-11-20T13:09:46;10.45;;;8.13;;
54683;SDS011;40582;53.100;6.686;2022-11-20T13:12:20;14.68;;;10.70;;
54683;SDS011;40582;53.100;6.686;2022-11-20T13:17:46;12.05;;;9.35;;
54683;SDS011;40582;53.100;6.686;2022-11-20T13:20:19;13.63;;;9.48;;
54683;SDS011;40582;53.100;6.686;2022-11-20T13:22:49;12.63;;;9.85;;
54683;SDS011;40582;53.100;6.686;2022-11-20T13:25:27;12.18;;;8.90;;
54683;SDS011;40582;53.100;6.686;2022-11-20T13:27:54;17.33;;;7.85;;
54683;SDS011;40582;53.100;6.686;2022-11-20T13:30:24;12.43;;;8.25;;
54683;SDS011;40582;53.100;6.686;2022-11-20T13:32:53;12.88;;;9.20;;
54683;SDS011;40582;53.100;6.686;2022-11-20T13:35:28;14.73;;;8.35;;
54683;SDS011;40582;53.100;6.686;2022-11-20T13:37:59;11.93;;;8.30;;
54683;SDS011;40582;53.100;6.686;2022-11-20T13:40:31;15.63;;;10.43;;
54683;SDS011;40582;53.100;6.686;2022-11-20T13:43:08;10.45;;;8.63;;
54683;SDS011;40582;53.100;6.686;2022-11-20T13:46:00;14.32;;;10.20;;
54683;SDS011;40582;53.100;6.686;2022-11-20T13:48:49;11.77;;;9.70;;
54683;SDS011;40582;53.100;6.686;2022-11-20T14:01:55;12.45;;;9.60;;
54683;SDS011;40582;53.100;6.686;2022-11-20T14:04:27;12.35;;;10.35;;
54683;SDS011;40582;53.100;6.686;2022-11-20T14:06:55;11.88;;;9.07;;
54683;SDS011;40582;53.100;6.686;2022-11-20T14:09:29;10.48;;;9.00;;
54683;SDS011;40582;53.100;6.686;2022-11-20T14:11:59;12.32;;;9.73;;
54683;SDS011;40582;53.100;6.686;2022-11-20T14:14:28;11.02;;;8.68;;
54683;SDS011;40582;53.100;6.686;2022-11-20T14:19:54;10.48;;;8.65;;
54683;SDS011;40582;53.100;6.686;2022-11-20T14:27:27;13.88;;;8.98;;
54683;SDS011;40582;53.100;6.686;2022-11-20T14:29:53;11.90;;;9.15;;
54683;SDS011;40582;53.100;6.686;2022-11-20T14:32:19;12.23;;;9.10;;
54683;SDS011;40582;53.100;6.686;2022-11-20T14:34:50;12.77;;;10.45;;
54683;SDS011;40582;53.100;6.686;2022-11-20T14:37:25;13.13;;;9.70;;
54683;SDS011;40582;53.100;6.686;2022-11-20T14:39:54;13.15;;;10.15;;
54683;SDS011;40582;53.100;6.686;2022-11-20T14:42:21;17.05;;;11.02;;
54683;SDS011;40582;53.100;6.686;2022-11-20T14:44:49;17.67;;;11.27;;
54683;SDS011;40582;53.100;6.686;2022-11-20T14:47:20;16.50;;;12.35;;
54683;SDS011;40582;53.100;6.686;2022-11-20T14:49:48;17.35;;;11.50;;
54683;SDS011;40582;53.100;6.686;2022-11-20T14:52:16;14.38;;;10.73;;
54683;SDS011;40582;53.100;6.686;2022-11-20T14:54:47;18.73;;;12.52;;
54683;SDS011;40582;53.100;6.686;2022-11-20T15:00:04;23.17;;;12.70;;
54683;SDS011;40582;53.100;6.686;2022-11-20T15:02:33;39.00;;;16.88;;
54683;SDS011;40582;53.100;6.686;2022-11-20T15:05:00;18.35;;;12.38;;
54683;SDS011;40582;53.100;6.686;2022-11-20T15:07:35;42.97;;;19.10;;
54683;SDS011;40582;53.100;6.686;2022-11-20T15:10:06;36.22;;;17.10;;
54683;SDS011;40582;53.100;6.686;2022-11-20T15:12:35;43.08;;;19.23;;
54683;SDS011;40582;53.100;6.686;2022-11-20T15:15:11;22.85;;;13.40;;
54683;SDS011;40582;53.100;6.686;2022-11-20T15:17:39;23.52;;;13.13;;
54683;SDS011;40582;53.100;6.686;2022-11-20T15:20:09;19.85;;;12.82;;
54683;SDS011;40582;53.100;6.686;2022-11-20T15:22:39;29.30;;;14.50;;
54683;SDS011;40582;53.100;6.686;2022-11-20T15:25:11;22.50;;;13.63;;
54683;SDS011;40582;53.100;6.686;2022-11-20T15:27:41;28.90;;;14.77;;
54683;SDS011;40582;53.100;6.686;2022-11-20T15:30:15;18.35;;;12.73;;
54683;SDS011;40582;53.100;6.686;2022-11-20T15:32:42;23.05;;;14.35;;
54683;SDS011;40582;53.100;6.686;2022-11-20T15:35:08;20.27;;;14.38;;
54683;SDS011;40582;53.100;6.686;2022-11-20T15:37:35;22.13;;;16.40;;
54683;SDS011;40582;53.100;6.686;2022-11-20T15:40:02;17.85;;;14.48;;
54683;SDS011;40582;53.100;6.686;2022-11-20T15:42:28;18.63;;;14.95;;
54683;SDS011;40582;53.100;6.686;2022-11-20T15:44:54;23.20;;;13.90;;
54683;SDS011;40582;53.100;6.686;2022-11-20T15:47:20;15.93;;;13.00;;
54683;SDS011;40582;53.100;6.686;2022-11-20T15:50:00;19.98;;;14.27;;
54683;SDS011;40582;53.100;6.686;2022-11-20T15:52:25;15.05;;;11.73;;
54683;SDS011;40582;53.100;6.686;2022-11-20T15:54:51;16.73;;;13.32;;
54683;SDS011;40582;53.100;6.686;2022-11-20T15:57:17;17.27;;;13.48;;
54683;SDS011;40582;53.100;6.686;2022-11-20T15:59:43;17.00;;;13.32;;
54683;SDS011;40582;53.100;6.686;2022-11-20T16:02:10;15.48;;;13.23;;
54683;SDS011;40582;53.100;6.686;2022-11-20T16:04:36;15.27;;;13.13;;
54683;SDS011;40582;53.100;6.686;2022-11-20T16:07:02;17.40;;;13.10;;
54683;SDS011;40582;53.100;6.686;2022-11-20T16:09:28;16.35;;;13.30;;
54683;SDS011;40582;53.100;6.686;2022-11-20T16:11:53;16.33;;;12.48;;
54683;SDS011;40582;53.100;6.686;2022-11-20T16:14:19;15.88;;;12.80;;
54683;SDS011;40582;53.100;6.686;2022-11-20T16:17:04;18.92;;;12.50;;